createdAt,value
2018-12-02T00:02:00.173Z,70.63
2018-12-02T00:04:29.490Z,70.68
2018-12-02T00:06:58.819Z,70.65
2018-12-02T00:09:28.252Z,70.65
2018-12-02T00:11:57.602Z,70.53
2018-12-02T00:14:27.033Z,70.53
2018-12-02T00:16:56.389Z,70.30
2018-12-02T00:19:25.839Z,70.30
2018-12-02T00:21:55.241Z,70.59
2018-12-02T00:24:24.664Z,70.53
2018-12-02T00:26:54.075Z,70.59
2018-12-02T00:29:23.640Z,70.51
2018-12-02T00:31:53.010Z,70.54
2018-12-02T00:34:22.399Z,70.86
2018-12-02T00:36:52.210Z,70.83
2018-12-02T00:39:21.545Z,70.86
2018-12-02T00:41:50.923Z,70.99
2018-12-02T00:44:20.398Z,70.94
2018-12-02T00:46:49.756Z,70.94
2018-12-02T00:49:19.286Z,71.21
2018-12-02T00:51:48.744Z,71.25
2018-12-02T00:54:18.125Z,71.10
2018-12-02T00:56:47.642Z,71.26
2018-12-02T00:59:16.922Z,71.47
2018-12-02T01:01:46.404Z,71.67
2018-12-02T01:04:15.813Z,71.61
2018-12-02T01:06:45.319Z,71.72
2018-12-02T01:09:14.610Z,72.24
2018-12-02T01:11:43.987Z,72.08
2018-12-02T01:14:13.418Z,72.08
2018-12-02T01:16:42.744Z,72.08
2018-12-02T01:19:12.120Z,72.49
2018-12-02T01:21:41.477Z,72.58
2018-12-02T01:24:10.929Z,72.58
2018-12-02T01:26:40.256Z,72.58
2018-12-02T01:29:09.710Z,72.65
2018-12-02T01:31:38.992Z,72.74
2018-12-02T01:34:08.435Z,72.81
2018-12-02T01:36:37.820Z,72.94
2018-12-02T01:39:08.168Z,73.06
2018-12-02T01:41:37.524Z,72.83
2018-12-02T01:44:06.953Z,73.36
2018-12-02T01:46:36.351Z,73.25
2018-12-02T01:49:06.064Z,73.41
2018-12-02T01:51:35.408Z,73.39
2018-12-02T01:54:04.835Z,73.20
2018-12-02T01:56:34.213Z,73.42
2018-12-02T01:59:03.618Z,73.38
2018-12-02T02:01:32.997Z,73.38
2018-12-02T02:04:02.482Z,73.63
2018-12-02T02:06:31.803Z,73.63
2018-12-02T02:09:01.180Z,73.87
2018-12-02T02:11:30.607Z,74.15
2018-12-02T02:13:59.981Z,73.96
2018-12-02T02:16:29.418Z,74.03
2018-12-02T02:18:58.823Z,74.03
2018-12-02T02:21:28.121Z,73.89
2018-12-02T02:23:57.468Z,73.80
2018-12-02T02:26:26.789Z,73.42
2018-12-02T02:28:56.153Z,73.62
2018-12-02T02:31:25.452Z,73.62
2018-12-02T02:33:54.849Z,73.67
2018-12-02T02:36:24.253Z,73.53
2018-12-02T02:38:53.645Z,73.53
2018-12-02T02:41:23.047Z,73.79
2018-12-02T02:43:52.360Z,73.93
2018-12-02T02:46:21.710Z,74.02
2018-12-02T02:48:51.163Z,74.10
2018-12-02T02:51:20.594Z,74.11
2018-12-02T02:53:50.003Z,74.34
2018-12-02T02:56:19.297Z,74.38
2018-12-02T02:58:48.625Z,74.39
2018-12-02T03:01:18.084Z,74.46
2018-12-02T03:03:47.667Z,74.48
2018-12-02T03:06:17.096Z,74.48
2018-12-02T03:08:46.578Z,74.57
2018-12-02T03:11:16.013Z,74.67
2018-12-02T03:13:46.052Z,74.64
2018-12-02T03:16:14.718Z,74.72
2018-12-02T03:18:44.024Z,74.72
2018-12-02T03:21:13.460Z,74.75
2018-12-02T03:23:42.889Z,74.83
2018-12-02T03:26:12.291Z,74.60
2018-12-02T03:28:41.801Z,74.72
2018-12-02T03:31:11.218Z,74.46
2018-12-02T03:33:41.398Z,74.71
2018-12-02T03:36:10.721Z,74.71
2018-12-02T03:38:40.063Z,74.46
2018-12-02T03:41:09.437Z,74.11
2018-12-02T03:43:38.905Z,74.31
2018-12-02T03:46:09.597Z,74.33
2018-12-02T03:48:37.641Z,74.08
2018-12-02T03:51:06.987Z,74.08
2018-12-02T03:53:36.311Z,74.15
2018-12-02T03:56:05.760Z,74.23
2018-12-02T03:58:35.081Z,74.06
2018-12-02T04:01:04.384Z,73.98
2018-12-02T04:03:33.873Z,74.30
2018-12-02T04:06:03.369Z,74.42
2018-12-02T04:08:32.751Z,74.24
2018-12-02T04:11:02.231Z,74.66
2018-12-02T04:13:31.525Z,74.37
2018-12-02T04:16:01.015Z,74.17
2018-12-02T04:18:30.466Z,74.13
2018-12-02T04:20:59.839Z,74.00
2018-12-02T04:23:29.252Z,73.92
2018-12-02T04:25:58.680Z,73.42
2018-12-02T04:28:28.133Z,73.74
2018-12-02T04:30:57.475Z,73.74
2018-12-02T04:33:27.039Z,73.30
2018-12-02T04:35:56.414Z,73.30
2018-12-02T04:38:25.939Z,72.92
2018-12-02T04:40:55.321Z,72.92
2018-12-02T04:43:27.873Z,72.88
2018-12-02T04:45:57.284Z,72.88
2018-12-02T04:48:26.666Z,73.54
2018-12-02T04:50:56.010Z,73.55
2018-12-02T04:53:25.271Z,73.50
2018-12-02T04:55:54.745Z,73.72
2018-12-02T04:58:24.036Z,73.56
2018-12-02T05:00:53.370Z,73.52
2018-12-02T05:03:22.726Z,73.36
2018-12-02T05:05:52.006Z,73.69
2018-12-02T05:08:21.397Z,73.69
2018-12-02T05:10:50.798Z,73.56
2018-12-02T05:13:20.112Z,73.56
2018-12-02T05:15:49.456Z,73.71
2018-12-02T05:18:18.820Z,73.84
2018-12-02T05:20:48.224Z,73.95
2018-12-02T05:23:18.095Z,73.88
2018-12-02T05:25:47.386Z,73.96
2018-12-02T05:28:16.737Z,74.07
2018-12-02T05:30:50.063Z,74.38
2018-12-02T05:33:19.391Z,74.38
2018-12-02T05:35:49.005Z,74.08
2018-12-02T05:38:18.302Z,74.06
2018-12-02T05:40:47.638Z,74.44
2018-12-02T05:43:17.007Z,74.44
2018-12-02T05:45:46.355Z,74.70
2018-12-02T05:48:15.956Z,74.85
2018-12-02T05:50:45.667Z,75.20
2018-12-02T05:53:14.946Z,75.20
2018-12-02T05:55:44.366Z,75.17
2018-12-02T05:58:14.494Z,75.22
2018-12-02T06:00:43.850Z,75.11
2018-12-02T06:03:13.296Z,75.16
2018-12-02T06:05:42.886Z,75.18
2018-12-02T06:08:12.304Z,75.04
2018-12-02T06:10:41.616Z,75.16
2018-12-02T06:13:10.944Z,75.03
2018-12-02T06:15:40.312Z,74.71
2018-12-02T06:18:09.644Z,75.04
2018-12-02T06:20:39.012Z,75.04
2018-12-02T06:23:08.385Z,75.25
2018-12-02T06:25:37.725Z,75.27
2018-12-02T06:28:07.126Z,75.27
2018-12-02T06:30:36.478Z,75.60
2018-12-02T06:33:06.374Z,75.60
2018-12-02T06:35:35.863Z,75.42
2018-12-02T06:38:06.421Z,75.50
2018-12-02T06:40:35.826Z,75.55
2018-12-02T06:43:05.186Z,75.69
2018-12-02T06:45:34.558Z,75.59
2018-12-02T06:48:04.164Z,75.59
2018-12-02T06:50:33.494Z,76.11
2018-12-02T06:53:02.852Z,76.11
2018-12-02T06:56:02.388Z,76.60
2018-12-02T06:58:53.638Z,77.11
2018-12-02T07:01:34.987Z,78.95
2018-12-02T07:04:40.426Z,80.27
2018-12-02T07:07:10.315Z,81.72
2018-12-02T07:09:39.792Z,83.22
2018-12-02T07:12:09.143Z,83.94
2018-12-02T07:14:38.574Z,84.75
2018-12-02T07:17:07.937Z,85.42
2018-12-02T07:19:44.109Z,87.57
2018-12-02T07:22:36.428Z,87.57
2018-12-02T07:25:10.588Z,88.19
2018-12-02T07:27:39.944Z,88.81
2018-12-02T07:30:10.576Z,89.36
2018-12-02T07:32:40.016Z,89.73
2018-12-02T07:35:11.404Z,89.99
2018-12-02T07:37:41.980Z,90.29
2018-12-02T07:40:31.612Z,90.45
2018-12-02T07:43:01.666Z,90.45
2018-12-02T07:45:31.102Z,90.71
2018-12-02T07:48:00.510Z,90.93
2018-12-02T07:50:29.979Z,91.18
2018-12-02T07:52:59.584Z,91.29
2018-12-02T07:55:29.052Z,91.27
2018-12-02T07:57:58.386Z,91.39
2018-12-02T08:00:27.758Z,91.42
2018-12-02T08:02:57.086Z,91.47
2018-12-02T08:05:26.629Z,91.52
2018-12-02T08:07:56.102Z,91.67
2018-12-02T08:10:25.478Z,91.82
2018-12-02T08:12:54.904Z,91.88
2018-12-02T08:15:24.310Z,91.88
2018-12-02T08:17:53.892Z,92.50
2018-12-02T08:20:23.216Z,92.18
2018-12-02T08:22:52.604Z,91.61
2018-12-02T08:25:21.989Z,91.76
2018-12-02T08:27:51.663Z,91.81
2018-12-02T08:30:22.135Z,91.95
2018-12-02T08:32:51.561Z,92.18
2018-12-02T08:35:22.359Z,92.18
2018-12-02T08:37:56.375Z,92.06
2018-12-02T08:40:25.673Z,92.07
2018-12-02T08:42:55.231Z,92.33
2018-12-02T08:45:24.603Z,92.33
2018-12-02T08:47:53.917Z,92.48
2018-12-02T08:50:23.212Z,92.48
2018-12-02T08:52:53.054Z,92.47
2018-12-02T08:55:22.583Z,92.17
2018-12-02T08:57:53.266Z,93.19
2018-12-02T09:00:23.114Z,93.15
2018-12-02T09:02:59.677Z,92.45
2018-12-02T09:05:28.997Z,92.55
2018-12-02T09:07:59.735Z,92.24
2018-12-02T09:10:30.055Z,91.49
2018-12-02T09:13:00.667Z,91.89
2018-12-02T09:15:30.025Z,91.88
2018-12-02T09:17:59.424Z,92.15
2018-12-02T09:20:33.597Z,92.33
2018-12-02T09:23:03.103Z,92.43
2018-12-02T09:25:32.551Z,92.46
2018-12-02T09:28:02.640Z,92.34
2018-12-02T09:30:33.244Z,92.30
2018-12-02T09:33:02.691Z,92.30
2018-12-02T09:35:32.082Z,92.59
2018-12-02T09:38:01.428Z,92.44
2018-12-02T09:40:30.756Z,92.48
2018-12-02T09:43:00.200Z,92.49
2018-12-02T09:45:30.085Z,92.54
2018-12-02T09:48:02.485Z,92.54
2018-12-02T09:50:31.804Z,92.46
2018-12-02T09:53:01.259Z,92.54
2018-12-02T09:55:44.798Z,92.54
2018-12-02T09:58:15.870Z,92.77
2018-12-02T10:00:45.272Z,92.77
2018-12-02T10:03:14.706Z,92.77
2018-12-02T10:05:44.048Z,92.83
2018-12-02T10:08:13.420Z,92.77
2018-12-02T10:10:43.078Z,92.83
2018-12-02T10:13:14.645Z,92.82
2018-12-02T10:15:44.536Z,92.82
2018-12-02T10:18:13.986Z,93.07
2018-12-02T10:20:43.318Z,93.07
2018-12-02T10:23:12.701Z,93.01
2018-12-02T10:25:42.172Z,92.60
2018-12-02T10:28:11.681Z,92.92
2018-12-02T10:30:44.081Z,92.68
2018-12-02T10:33:13.401Z,92.87
2018-12-02T10:35:42.750Z,92.68
2018-12-02T10:38:12.599Z,92.68
2018-12-02T10:40:42.016Z,92.47
2018-12-02T10:43:11.350Z,93.08
2018-12-02T10:45:40.702Z,93.03
2018-12-02T10:48:13.024Z,92.92
2018-12-02T10:50:42.383Z,93.01
2018-12-02T10:53:18.944Z,93.07
2018-12-02T10:55:55.671Z,93.07
2018-12-02T10:58:29.361Z,93.09
2018-12-02T11:01:19.165Z,93.19
2018-12-02T11:03:48.913Z,93.32
2018-12-02T11:06:18.234Z,93.48
2018-12-02T11:08:47.617Z,93.52
2018-12-02T11:11:16.894Z,93.60
2018-12-02T11:13:46.222Z,93.58
2018-12-02T11:16:18.450Z,93.81
2018-12-02T11:18:48.057Z,93.79
2018-12-02T11:21:17.456Z,93.87
2018-12-02T11:23:47.038Z,94.04
2018-12-02T11:26:16.348Z,93.87
2018-12-02T11:28:45.708Z,93.86
2018-12-02T11:31:15.176Z,93.86
2018-12-02T11:33:44.960Z,93.97
2018-12-02T11:36:14.730Z,94.16
2018-12-02T11:38:44.309Z,94.20
2018-12-02T11:41:14.030Z,94.11
2018-12-02T11:43:43.396Z,94.11
2018-12-02T11:46:12.704Z,94.18
2018-12-02T11:48:42.126Z,94.18
2018-12-02T11:51:11.472Z,94.19
2018-12-02T11:53:40.888Z,94.15
2018-12-02T11:56:10.186Z,94.15
2018-12-02T11:58:39.628Z,94.24
2018-12-02T12:01:08.926Z,94.22
2018-12-02T12:03:38.229Z,94.25
2018-12-02T12:06:07.599Z,94.26
2018-12-02T12:08:36.884Z,94.33
2018-12-02T12:11:06.235Z,94.41
2018-12-02T12:13:35.550Z,94.40
2018-12-02T12:16:04.908Z,94.35
2018-12-02T12:18:34.355Z,94.09
2018-12-02T12:21:03.708Z,94.39
2018-12-02T12:23:33.100Z,94.26
2018-12-02T12:26:02.434Z,94.14
2018-12-02T12:28:31.808Z,94.48
2018-12-02T12:31:01.195Z,94.43
2018-12-02T12:33:30.470Z,94.43
2018-12-02T12:35:59.842Z,94.47
2018-12-02T12:38:29.243Z,94.61
2018-12-02T12:40:58.568Z,94.61
2018-12-02T12:43:35.760Z,94.56
2018-12-02T12:46:05.352Z,94.56
2018-12-02T12:48:34.738Z,94.59
2018-12-02T12:51:04.112Z,94.63
2018-12-02T12:53:33.408Z,94.70
2018-12-02T12:56:02.866Z,94.70
2018-12-02T12:58:32.184Z,94.66
2018-12-02T13:01:01.509Z,94.71
2018-12-02T13:03:30.908Z,94.73
2018-12-02T13:06:00.319Z,94.64
2018-12-02T13:08:29.614Z,94.57
2018-12-02T13:10:59.153Z,95.22
2018-12-02T13:13:28.751Z,95.22
2018-12-02T13:15:58.253Z,94.71
2018-12-02T13:18:27.927Z,94.86
2018-12-02T13:20:57.180Z,94.86
2018-12-02T13:23:26.707Z,94.79
2018-12-02T13:25:56.071Z,94.70
2018-12-02T13:28:25.404Z,94.70
2018-12-02T13:30:55.164Z,95.01
2018-12-02T13:33:24.712Z,94.80
2018-12-02T13:35:55.527Z,94.80
2018-12-02T13:38:25.304Z,94.82
2018-12-02T13:40:54.665Z,94.86
2018-12-02T13:43:24.930Z,94.81
2018-12-02T13:45:54.442Z,94.84
2018-12-02T13:48:23.915Z,94.84
2018-12-02T13:50:53.246Z,94.87
2018-12-02T13:53:22.558Z,95.00
2018-12-02T13:55:52.086Z,94.94
2018-12-02T13:58:21.395Z,94.96
2018-12-02T14:00:50.825Z,94.91
2018-12-02T14:03:20.141Z,94.97
2018-12-02T14:05:49.657Z,94.96
2018-12-02T14:08:18.941Z,95.00
2018-12-02T14:10:48.303Z,95.03
2018-12-02T14:13:25.504Z,95.07
2018-12-02T14:16:32.176Z,95.12
2018-12-02T14:19:12.446Z,95.16
2018-12-02T14:21:41.900Z,95.24
2018-12-02T14:24:12.069Z,95.27
2018-12-02T14:26:43.496Z,95.30
2018-12-02T14:29:23.620Z,95.35
2018-12-02T14:31:57.540Z,95.35
2018-12-02T14:34:26.874Z,95.42
2018-12-02T14:36:56.327Z,95.42
2018-12-02T14:39:25.685Z,95.39
2018-12-02T14:41:55.095Z,95.39
2018-12-02T14:44:24.452Z,95.43
2018-12-02T14:46:53.899Z,95.49
2018-12-02T14:49:23.305Z,95.51
2018-12-02T14:51:52.694Z,95.50
2018-12-02T14:54:22.027Z,95.50
2018-12-02T14:56:51.417Z,95.54
2018-12-02T14:59:20.830Z,95.56
2018-12-02T15:01:50.116Z,95.62
2018-12-02T15:04:19.442Z,95.67
2018-12-02T15:06:48.828Z,95.64
2018-12-02T15:09:18.208Z,95.60
2018-12-02T15:11:47.656Z,95.63
2018-12-02T15:14:17.028Z,95.66
2018-12-02T15:16:46.529Z,95.69
2018-12-02T15:19:15.843Z,95.73
2018-12-02T15:21:45.206Z,95.71
2018-12-02T15:24:14.616Z,95.71
2018-12-02T15:26:44.044Z,95.68
2018-12-02T15:29:13.572Z,95.69
2018-12-02T15:31:42.994Z,95.71
2018-12-02T15:34:13.183Z,95.68
2018-12-02T15:36:42.807Z,95.64
2018-12-02T15:39:12.141Z,95.63
2018-12-02T15:41:41.401Z,95.64
2018-12-02T15:44:10.793Z,95.64
2018-12-02T15:46:40.180Z,95.67
2018-12-02T15:49:09.596Z,95.67
2018-12-02T15:51:39.015Z,95.70
2018-12-02T15:54:08.370Z,95.73
2018-12-02T15:56:37.715Z,95.69
2018-12-02T15:59:10.253Z,95.73
2018-12-02T16:01:39.681Z,95.72
2018-12-02T16:04:09.009Z,95.75
2018-12-02T16:06:38.373Z,95.79
2018-12-02T16:09:09.326Z,95.84
2018-12-02T16:11:38.802Z,95.87
2018-12-02T16:14:08.306Z,95.91
2018-12-02T16:16:37.615Z,95.91
2018-12-02T16:19:07.026Z,95.94
2018-12-02T16:21:36.456Z,95.95
2018-12-02T16:24:05.853Z,95.86
2018-12-02T16:26:35.255Z,95.80
2018-12-02T16:29:04.667Z,95.75
2018-12-02T16:31:34.088Z,95.66
2018-12-02T16:34:03.687Z,95.56
2018-12-02T16:36:33.027Z,95.40
2018-12-02T16:39:02.331Z,95.33
2018-12-02T16:41:31.925Z,94.73
2018-12-02T16:44:01.272Z,94.57
2018-12-02T16:46:30.640Z,94.40
2018-12-02T16:49:00.035Z,93.61
2018-12-02T16:51:29.517Z,93.59
2018-12-02T16:53:58.990Z,92.92
2018-12-02T16:56:28.645Z,92.88
2018-12-02T16:59:13.050Z,93.21
2018-12-02T17:01:45.231Z,92.48
2018-12-02T17:04:14.932Z,92.82
2018-12-02T17:06:44.361Z,92.62
2018-12-02T17:09:14.038Z,92.46
2018-12-02T17:11:44.977Z,92.37
2018-12-02T17:14:14.277Z,92.77
2018-12-02T17:16:43.821Z,93.08
2018-12-02T17:19:13.343Z,93.22
2018-12-02T17:21:43.065Z,93.39
2018-12-02T17:24:12.785Z,93.45
2018-12-02T17:26:42.383Z,93.68
2018-12-02T17:29:13.797Z,93.57
2018-12-02T17:31:58.058Z,93.45
2018-12-02T17:34:27.460Z,93.62
2018-12-02T17:36:56.974Z,93.77
2018-12-02T17:39:28.432Z,93.83
2018-12-02T17:42:12.339Z,93.97
2018-12-02T17:44:42.053Z,93.96
2018-12-02T17:47:11.573Z,93.77
2018-12-02T17:49:40.995Z,93.66
2018-12-02T17:52:10.535Z,93.64
2018-12-02T17:54:39.926Z,93.74
2018-12-02T17:57:09.448Z,93.50
2018-12-02T17:59:39.101Z,93.52
2018-12-02T18:02:08.619Z,93.39
2018-12-02T18:04:38.014Z,93.23
2018-12-02T18:07:07.465Z,93.32
2018-12-02T18:09:36.836Z,93.37
2018-12-02T18:12:06.703Z,93.37
2018-12-02T18:14:36.409Z,92.58
2018-12-02T18:17:06.123Z,92.12
2018-12-02T18:19:35.636Z,92.43
2018-12-02T18:22:05.115Z,92.38
2018-12-02T18:24:34.645Z,92.21
2018-12-02T18:27:04.434Z,91.37
2018-12-02T18:29:34.047Z,90.28
2018-12-02T18:32:03.969Z,90.35
2018-12-02T18:34:35.005Z,89.76
2018-12-02T18:37:05.439Z,90.28
2018-12-02T18:39:34.972Z,90.23
2018-12-02T18:42:04.417Z,90.22
2018-12-02T18:44:33.965Z,90.35
2018-12-02T18:47:03.755Z,90.26
2018-12-02T18:49:33.302Z,89.46
2018-12-02T18:52:02.915Z,89.48
2018-12-02T18:54:32.484Z,89.85
2018-12-02T18:57:02.016Z,89.82
2018-12-02T18:59:31.598Z,89.87
2018-12-02T19:02:01.259Z,90.13
2018-12-02T19:04:30.813Z,89.87
2018-12-02T19:07:00.354Z,89.48
2018-12-02T19:09:32.629Z,89.22
2018-12-02T19:11:59.238Z,88.76
2018-12-02T19:14:28.840Z,89.06
2018-12-02T19:16:58.125Z,88.75
2018-12-02T19:19:28.539Z,88.75
2018-12-02T19:21:58.741Z,88.66
2018-12-02T19:24:28.427Z,88.94
2018-12-02T19:26:58.006Z,89.20
2018-12-02T19:29:27.702Z,89.14
2018-12-02T19:31:57.327Z,88.84
2018-12-02T19:34:26.685Z,88.79
2018-12-02T19:36:59.878Z,88.40
2018-12-02T19:39:29.178Z,88.74
2018-12-02T19:41:58.808Z,88.53
2018-12-02T19:44:29.268Z,88.30
2018-12-02T19:46:58.966Z,88.20
2018-12-02T19:49:28.569Z,88.17
2018-12-02T19:51:58.497Z,88.20
2018-12-02T19:54:28.039Z,88.11
2018-12-02T19:56:57.463Z,88.24
2018-12-02T19:59:27.910Z,88.54
2018-12-02T20:01:57.290Z,88.46
2018-12-02T20:04:26.920Z,88.64
2018-12-02T20:06:56.716Z,88.66
2018-12-02T20:09:26.415Z,88.66
2018-12-02T20:11:55.850Z,88.65
2018-12-02T20:14:27.794Z,88.85
2018-12-02T20:16:55.096Z,88.77
2018-12-02T20:19:43.003Z,88.12
2018-12-02T20:22:12.389Z,88.08
2018-12-02T20:24:41.972Z,87.87
2018-12-02T20:27:11.786Z,87.93
2018-12-02T20:29:41.223Z,87.83
2018-12-02T20:32:12.300Z,87.80
2018-12-02T20:34:41.904Z,87.81
2018-12-02T20:37:11.437Z,87.67
2018-12-02T20:39:40.960Z,87.58
2018-12-02T20:42:10.338Z,87.54
2018-12-02T20:44:39.931Z,87.69
2018-12-02T20:47:09.363Z,87.99
2018-12-02T20:49:38.990Z,88.29
2018-12-02T20:52:08.894Z,88.37
2018-12-02T20:54:39.135Z,88.28
2018-12-02T20:57:09.103Z,88.21
2018-12-02T20:59:40.894Z,88.10
2018-12-02T21:02:11.177Z,87.83
2018-12-02T21:04:41.015Z,87.73
2018-12-02T21:07:11.986Z,87.57
2018-12-02T21:09:42.235Z,87.46
2018-12-02T21:12:12.224Z,87.27
2018-12-02T21:14:41.279Z,87.29
2018-12-02T21:17:10.843Z,87.06
2018-12-02T21:19:40.597Z,87.06
2018-12-02T21:22:12.925Z,86.84
2018-12-02T21:24:39.987Z,86.47
2018-12-02T21:27:09.593Z,86.06
2018-12-02T21:29:39.075Z,85.67
2018-12-02T21:32:08.774Z,85.25
2018-12-02T21:34:38.453Z,85.27
2018-12-02T21:37:07.952Z,85.52
2018-12-02T21:39:37.816Z,85.36
2018-12-02T21:42:07.946Z,85.10
2018-12-02T21:44:37.643Z,84.97
2018-12-02T21:47:07.444Z,85.01
2018-12-02T21:49:37.251Z,84.80
2018-12-02T21:52:06.652Z,84.54
2018-12-02T21:54:36.499Z,84.73
2018-12-02T21:57:06.465Z,84.76
2018-12-02T21:59:36.033Z,84.75
2018-12-02T22:02:05.989Z,85.26
2018-12-02T22:04:35.443Z,85.49
2018-12-02T22:07:05.195Z,85.82
2018-12-02T22:09:34.551Z,85.86
2018-12-02T22:12:04.578Z,86.17
2018-12-02T22:14:34.151Z,86.31
2018-12-02T22:17:04.105Z,85.68
2018-12-02T22:19:33.871Z,85.61
2018-12-02T22:22:03.901Z,85.72
2018-12-02T22:24:33.866Z,85.92
2018-12-02T22:27:03.237Z,85.99
2018-12-02T22:29:33.040Z,86.32
2018-12-02T22:32:02.482Z,86.84
2018-12-02T22:34:33.276Z,86.86
2018-12-02T22:37:03.701Z,86.77
2018-12-02T22:39:33.428Z,86.63
2018-12-02T22:42:03.396Z,86.05
2018-12-02T22:44:32.708Z,85.80
2018-12-02T22:47:02.037Z,85.25
2018-12-02T22:49:31.459Z,84.85
2018-12-02T22:52:00.941Z,85.04
2018-12-02T22:54:30.474Z,84.52
2018-12-02T22:56:59.902Z,84.30
2018-12-02T22:59:29.382Z,84.19
2018-12-02T23:02:27.301Z,84.10
2018-12-02T23:04:56.725Z,84.12
2018-12-02T23:07:26.241Z,84.50
2018-12-02T23:09:55.730Z,84.41
2018-12-02T23:12:25.262Z,84.84
2018-12-02T23:14:54.784Z,85.12
2018-12-02T23:17:24.682Z,85.18
2018-12-02T23:19:54.276Z,85.18
2018-12-02T23:22:23.580Z,85.19
2018-12-02T23:24:52.932Z,85.09
2018-12-02T23:27:22.258Z,84.96
2018-12-02T23:29:52.043Z,85.31
2018-12-02T23:32:21.528Z,85.60
2018-12-02T23:34:51.014Z,85.75
2018-12-02T23:37:20.763Z,86.01
2018-12-02T23:39:49.738Z,85.94
2018-12-02T23:42:19.242Z,86.08
2018-12-02T23:44:48.931Z,86.18
2018-12-02T23:47:19.151Z,86.07
2018-12-02T23:49:48.847Z,86.09
2018-12-02T23:52:18.481Z,86.29
2018-12-02T23:54:47.893Z,86.39
2018-12-02T23:57:17.306Z,86.49
2018-12-02T23:59:46.882Z,86.04
